Terminal Aerodrome Forecast
Issued by NWS

Home | Current Version | Previous Version | Text Only | Print | Product List | Glossary On
Versions: 1 2 3 4 5 6 7 8 9 10 11 12 13 14 15 16 17 18 19 20 21 22 23 24 25
000
FTUS43 KGLD 141732
TAFMCK
TAF
KMCK 141732Z 1418/1518 09008KT P6SM SCT120
     FM142000 15012G22KT P6SM FEW120 SCT250
     FM150000 11008KT P6SM SCT120
     FM150800 05012G22KT 6SM BR SCT015 BKN120 PROB30 1509/1512 -TSRA
      SCT015 BKN030CB
     FM151200 02013G19KT P6SM VCSH OVC010
     FM151600 02012G17KT P6SM FEW012 OVC020=

USA.gov is the U.S. government's official web portal to all federal, state and local government web resources and services.